createdAt,value
2022-09-18T00:00:11.034Z,8.90
2022-09-18T00:02:13.415Z,10.93
2022-09-18T00:04:15.623Z,8.00
2022-09-18T00:06:20.076Z,8.20
2022-09-18T00:08:24.993Z,8.48
2022-09-18T00:10:27.177Z,11.48
2022-09-18T00:12:29.556Z,8.07
2022-09-18T00:14:31.692Z,11.02
2022-09-18T00:16:33.985Z,8.88
2022-09-18T00:18:36.808Z,7.78
2022-09-18T00:20:39.023Z,10.10
2022-09-18T00:22:41.187Z,10.13
2022-09-18T00:24:45.938Z,11.85
2022-09-18T00:26:48.578Z,10.60
2022-09-18T00:28:51.572Z,11.13
2022-09-18T00:30:54.046Z,10.23
2022-09-18T00:32:56.346Z,11.07
2022-09-18T00:34:58.585Z,14.18
2022-09-18T00:37:00.848Z,10.80
2022-09-18T00:39:03.427Z,7.00
2022-09-18T00:41:13.105Z,11.80
2022-09-18T00:43:20.241Z,8.38
2022-09-18T00:45:22.558Z,7.72
2022-09-18T00:47:29.291Z,10.82
2022-09-18T00:49:32.035Z,10.05
2022-09-18T00:51:36.166Z,8.95
2022-09-18T00:53:41.519Z,6.78
2022-09-18T00:55:44.293Z,7.60
2022-09-18T00:57:51.928Z,11.90
2022-09-18T00:59:55.592Z,12.45
2022-09-18T01:01:59.153Z,8.82
2022-09-18T01:04:01.733Z,8.32
2022-09-18T01:06:13.175Z,9.35
2022-09-18T01:08:27.574Z,10.20
2022-09-18T01:10:48.833Z,11.35
2022-09-18T01:13:00.290Z,7.60
2022-09-18T01:15:10.497Z,10.13
2022-09-18T01:17:21.633Z,6.93
2022-09-18T01:19:39.384Z,8.70
2022-09-18T01:21:46.981Z,13.18
2022-09-18T01:24:16.049Z,7.95
2022-09-18T01:26:28.008Z,8.95
2022-09-18T01:28:39.126Z,12.02
2022-09-18T01:30:45.640Z,7.03
2022-09-18T01:32:57.129Z,9.55
2022-09-18T01:35:09.835Z,8.02
2022-09-18T01:37:30.025Z,7.30
2022-09-18T01:39:37.708Z,9.90
2022-09-18T01:41:43.526Z,10.20
2022-09-18T01:43:50.872Z,11.70
2022-09-18T01:45:59.185Z,6.82
2022-09-18T01:48:05.385Z,8.18
2022-09-18T01:50:09.222Z,8.90
2022-09-18T01:52:16.400Z,8.88
2022-09-18T01:54:23.456Z,6.75
2022-09-18T01:56:33.743Z,7.85
2022-09-18T01:58:37.424Z,13.48
2022-09-18T02:00:46.798Z,9.07
2022-09-18T02:02:55.309Z,11.07
2022-09-18T02:05:00.722Z,5.72
2022-09-18T02:07:14.333Z,10.00
2022-09-18T02:09:16.542Z,14.60
2022-09-18T02:11:20.246Z,8.35
2022-09-18T02:13:29.784Z,12.20
2022-09-18T02:15:34.851Z,8.13
2022-09-18T02:17:47.145Z,7.22
2022-09-18T02:19:52.578Z,11.23
2022-09-18T02:21:58.329Z,8.40
2022-09-18T02:24:05.078Z,8.45
2022-09-18T02:26:09.704Z,8.98
2022-09-18T02:28:16.002Z,13.93
2022-09-18T02:30:18.618Z,7.28
2022-09-18T02:32:21.791Z,8.23
2022-09-18T02:34:27.796Z,7.10
2022-09-18T02:36:51.561Z,6.88
2022-09-18T02:39:08.381Z,7.90
2022-09-18T02:41:16.637Z,9.43
2022-09-18T02:43:31.340Z,10.75
2022-09-18T02:45:40.029Z,9.40
2022-09-18T02:47:57.751Z,7.75
2022-09-18T02:50:14.458Z,7.80
2022-09-18T02:52:24.569Z,7.47
2022-09-18T02:54:32.936Z,11.32
2022-09-18T02:56:41.998Z,11.50
2022-09-18T02:58:51.439Z,8.90
2022-09-18T03:00:57.201Z,8.60
2022-09-18T03:03:00.160Z,10.68
2022-09-18T03:05:10.074Z,15.02
2022-09-18T03:07:14.681Z,8.27
2022-09-18T03:09:16.917Z,10.30
2022-09-18T03:11:19.076Z,6.05
2022-09-18T03:13:21.304Z,11.43
2022-09-18T03:15:23.749Z,10.25
2022-09-18T03:17:28.368Z,12.38
2022-09-18T03:19:30.556Z,16.38
2022-09-18T03:21:35.377Z,8.52
2022-09-18T03:23:39.437Z,12.02
2022-09-18T03:25:44.449Z,8.27
2022-09-18T03:27:46.674Z,11.30
2022-09-18T03:29:48.808Z,11.38
2022-09-18T03:31:51.119Z,10.57
2022-09-18T03:33:59.329Z,11.07
2022-09-18T03:36:08.452Z,15.32
2022-09-18T03:38:13.262Z,10.52
2022-09-18T03:40:17.119Z,7.22
2022-09-18T03:42:19.290Z,10.20
2022-09-18T03:44:21.520Z,8.02
2022-09-18T03:46:24.260Z,7.93
2022-09-18T03:48:29.166Z,9.43
2022-09-18T03:58:01.991Z,6.68
2022-09-18T04:00:05.307Z,5.45
2022-09-18T04:02:07.573Z,11.23
2022-09-18T04:04:13.339Z,9.30
2022-09-18T04:06:15.721Z,5.45
2022-09-18T04:08:18.480Z,7.85
2022-09-18T04:10:20.691Z,6.22
2022-09-18T04:12:22.996Z,7.57
2022-09-18T04:14:30.098Z,5.97
2022-09-18T04:16:32.734Z,10.70
2022-09-18T04:18:34.957Z,7.47
2022-09-18T04:20:37.736Z,8.73
2022-09-18T04:22:40.196Z,7.38
2022-09-18T04:24:42.577Z,5.43
2022-09-18T04:26:44.855Z,7.00
2022-09-18T04:28:47.083Z,9.57
2022-09-18T04:30:52.199Z,5.97
2022-09-18T04:32:54.414Z,8.63
2022-09-18T04:34:57.390Z,9.88
2022-09-18T04:36:59.645Z,6.07
2022-09-18T04:39:01.900Z,9.73
2022-09-18T04:41:05.542Z,10.30
2022-09-18T04:43:10.436Z,3.58
2022-09-18T04:45:15.149Z,5.78
2022-09-18T04:47:20.311Z,7.45
2022-09-18T04:49:23.310Z,10.88
2022-09-18T04:51:25.748Z,9.40
2022-09-18T04:53:32.288Z,10.02
2022-09-18T04:55:34.607Z,6.10
2022-09-18T04:57:37.055Z,7.03
2022-09-18T04:59:39.497Z,7.95
2022-09-18T05:01:42.195Z,7.93
2022-09-18T05:03:47.448Z,7.15
2022-09-18T05:05:55.210Z,10.65
2022-09-18T05:08:00.284Z,7.88
2022-09-18T05:10:05.086Z,7.80
2022-09-18T05:12:09.934Z,7.65
2022-09-18T05:14:12.167Z,6.10
2022-09-18T05:16:14.972Z,7.50
2022-09-18T05:18:17.183Z,7.47
2022-09-18T05:20:21.940Z,9.30
2022-09-18T05:22:24.303Z,9.45
2022-09-18T05:24:26.554Z,7.45
2022-09-18T05:26:30.484Z,5.60
2022-09-18T05:28:33.096Z,9.88
2022-09-18T05:30:35.393Z,9.90
2022-09-18T05:32:37.548Z,6.00
2022-09-18T05:34:39.741Z,8.48
2022-09-18T05:36:45.946Z,4.30
2022-09-18T05:38:48.579Z,7.78
2022-09-18T05:40:52.182Z,6.25
2022-09-18T05:42:55.153Z,9.57
2022-09-18T05:45:01.654Z,6.00
2022-09-18T05:47:05.250Z,5.72
2022-09-18T05:49:08.254Z,9.25
2022-09-18T05:51:10.447Z,3.17
2022-09-18T05:53:17.107Z,5.28
2022-09-18T05:55:19.456Z,5.32
2022-09-18T05:57:21.665Z,4.32
2022-09-18T05:59:24.265Z,4.30
2022-09-18T06:01:26.485Z,7.70
2022-09-18T06:03:29.137Z,6.32
2022-09-18T06:05:33.055Z,3.42
2022-09-18T06:07:35.257Z,3.50
2022-09-18T06:09:43.700Z,7.45
2022-09-18T06:11:48.618Z,11.55
2022-09-18T06:13:52.593Z,8.20
2022-09-18T06:15:56.272Z,5.07
2022-09-18T06:17:58.817Z,3.78
2022-09-18T06:20:02.116Z,10.23
2022-09-18T06:22:06.859Z,6.32
2022-09-18T06:24:09.679Z,6.72
2022-09-18T06:26:15.958Z,7.57
2022-09-18T06:28:18.798Z,9.70
2022-09-18T06:30:23.846Z,3.65
2022-09-18T06:32:26.557Z,5.97
2022-09-18T06:34:29.409Z,8.13
2022-09-18T06:36:31.609Z,14.38
2022-09-18T06:38:35.051Z,9.17
2022-09-18T06:40:37.288Z,9.05
2022-09-18T06:42:45.922Z,9.63
2022-09-18T06:44:48.392Z,10.13
2022-09-18T06:46:50.646Z,7.07
2022-09-18T06:48:53.084Z,5.82
2022-09-18T06:50:56.937Z,3.40
2022-09-18T06:53:02.278Z,10.10
2022-09-18T06:55:07.759Z,5.97
2022-09-18T07:15:40.895Z,8.90
2022-09-18T07:17:45.372Z,5.72
2022-09-18T07:19:51.799Z,8.10
2022-09-18T07:21:55.010Z,7.50
2022-09-18T07:34:24.493Z,5.75
2022-09-18T07:36:33.424Z,3.80
2022-09-18T07:38:44.267Z,7.10
2022-09-18T07:40:52.394Z,2.78
2022-09-18T07:43:07.676Z,3.03
2022-09-18T07:47:42.469Z,6.78
2022-09-18T07:49:50.676Z,6.95
2022-09-18T07:52:09.032Z,10.88
2022-09-18T07:54:20.301Z,7.10
2022-09-18T07:56:30.930Z,8.85
2022-09-18T07:58:44.328Z,7.43
2022-09-18T08:00:50.680Z,4.50
2022-09-18T08:03:11.644Z,6.43
2022-09-18T08:05:20.908Z,3.90
2022-09-18T08:07:32.202Z,6.32
2022-09-18T08:09:34.949Z,4.97
2022-09-18T08:14:08.920Z,5.30
2022-09-18T08:16:15.613Z,6.10
2022-09-18T08:18:21.391Z,6.38
2022-09-18T08:20:25.369Z,10.18
2022-09-18T08:22:30.614Z,6.63
2022-09-18T08:24:35.720Z,9.23
2022-09-18T08:26:38.859Z,14.57
2022-09-18T08:28:41.254Z,3.92
2022-09-18T08:30:44.219Z,6.07
2022-09-18T08:32:48.696Z,7.25
2022-09-18T08:34:50.981Z,4.82
2022-09-18T08:36:54.708Z,11.82
2022-09-18T08:39:01.098Z,9.45
2022-09-18T08:41:18.677Z,5.03
2022-09-18T08:43:40.594Z,10.75
2022-09-18T08:45:56.133Z,9.27
2022-09-18T08:48:05.071Z,11.93
2022-09-18T08:50:15.873Z,9.65
2022-09-18T08:52:22.962Z,7.70
2022-09-18T08:54:42.735Z,8.10
2022-09-18T08:56:46.781Z,6.50
2022-09-18T08:58:54.496Z,7.05
2022-09-18T09:01:01.712Z,5.57
2022-09-18T09:03:20.417Z,6.38
2022-09-18T09:05:30.183Z,7.80
2022-09-18T09:07:53.299Z,10.63
2022-09-18T09:10:12.343Z,9.30
2022-09-18T09:12:23.966Z,7.95
2022-09-18T09:14:57.253Z,7.90
2022-09-18T09:17:04.914Z,6.07
2022-09-18T09:19:21.501Z,5.47
2022-09-18T09:21:40.910Z,8.30
2022-09-18T09:24:08.202Z,7.68
2022-09-18T09:26:18.204Z,8.95
2022-09-18T09:28:25.207Z,10.02
2022-09-18T09:30:33.575Z,6.72
2022-09-18T09:32:41.280Z,6.20
2022-09-18T09:34:50.519Z,7.32
2022-09-18T09:36:56.814Z,7.22
2022-09-18T09:39:11.242Z,10.02
2022-09-18T09:41:28.443Z,8.27
2022-09-18T09:43:41.370Z,7.47
2022-09-18T09:45:48.204Z,7.07
2022-09-18T09:47:56.302Z,6.22
2022-09-18T09:50:15.326Z,6.60
2022-09-18T09:52:22.691Z,8.50
2022-09-18T09:54:25.301Z,8.25
2022-09-18T09:56:36.867Z,6.80
2022-09-18T09:58:48.986Z,6.63
2022-09-18T10:01:04.208Z,7.68
2022-09-18T10:03:46.084Z,13.90
2022-09-18T10:05:54.016Z,6.38
2022-09-18T10:08:05.078Z,9.52
2022-09-18T10:10:17.572Z,9.35
2022-09-18T10:12:29.384Z,10.65
2022-09-18T10:14:38.102Z,6.88
2022-09-18T10:16:45.531Z,4.93
2022-09-18T10:18:48.624Z,5.63
2022-09-18T10:20:55.777Z,12.27
2022-09-18T10:23:04.777Z,10.30
2022-09-18T10:25:16.659Z,8.90
2022-09-18T10:27:20.275Z,11.85
2022-09-18T10:29:25.427Z,9.60
2022-09-18T10:31:49.322Z,9.07
2022-09-18T10:33:53.263Z,9.27
2022-09-18T10:36:00.460Z,9.30
2022-09-18T10:38:02.696Z,7.18
2022-09-18T10:40:26.680Z,9.70
2022-09-18T10:42:34.183Z,8.68
2022-09-18T10:44:41.472Z,11.48
2022-09-18T10:46:53.732Z,9.13
2022-09-18T10:48:57.447Z,8.95
2022-09-18T10:51:01.929Z,12.70
2022-09-18T10:53:27.233Z,12.65
2022-09-18T10:55:31.034Z,9.50
2022-09-18T10:57:37.907Z,11.77
2022-09-18T10:59:40.099Z,8.07
2022-09-18T11:01:45.051Z,6.85
2022-09-18T11:03:49.821Z,10.15
2022-09-18T11:05:59.629Z,9.82
2022-09-18T11:08:06.481Z,12.38
2022-09-18T11:10:17.269Z,8.40
2022-09-18T11:12:22.337Z,8.75
2022-09-18T11:25:48.083Z,10.40
2022-09-18T11:33:21.492Z,8.57
2022-09-18T11:35:26.489Z,9.02
2022-09-18T11:37:31.684Z,6.93
2022-09-18T11:39:37.712Z,5.68
2022-09-18T11:41:42.088Z,8.95
2022-09-18T11:43:44.421Z,5.72
2022-09-18T11:45:55.501Z,3.47
2022-09-18T11:48:04.291Z,8.07
2022-09-18T11:50:17.769Z,6.40
2022-09-18T11:52:26.140Z,9.27
2022-09-18T11:54:33.175Z,7.82
2022-09-18T11:56:42.172Z,6.00
2022-09-18T11:58:48.603Z,8.57
2022-09-18T12:00:56.878Z,8.77
2022-09-18T12:03:11.475Z,6.32
2022-09-18T12:05:23.957Z,8.57
2022-09-18T12:07:40.840Z,6.07
2022-09-18T12:09:52.848Z,9.18
2022-09-18T12:12:02.596Z,9.15
2022-09-18T12:14:14.478Z,10.23
2022-09-18T12:16:22.760Z,8.70
2022-09-18T12:18:31.251Z,7.90
2022-09-18T12:20:40.435Z,4.63
2022-09-18T12:22:47.571Z,8.65
2022-09-18T12:24:50.227Z,6.05
2022-09-18T12:27:12.107Z,7.75
2022-09-18T12:29:24.746Z,5.97
2022-09-18T12:44:38.696Z,4.80
2022-09-18T12:46:59.866Z,5.95
2022-09-18T12:49:24.872Z,6.95
2022-09-18T12:51:41.308Z,5.18
2022-09-18T12:54:06.018Z,4.65
2022-09-18T12:56:27.077Z,1.83
2022-09-18T12:58:50.037Z,3.83
2022-09-18T13:00:56.168Z,4.13
2022-09-18T13:03:04.679Z,5.20
2022-09-18T13:05:14.825Z,6.90
2022-09-18T13:07:24.029Z,4.80
2022-09-18T13:09:32.813Z,6.50
2022-09-18T13:11:41.736Z,5.30
2022-09-18T13:13:50.183Z,4.65
2022-09-18T13:15:59.643Z,5.90
2022-09-18T13:18:16.358Z,7.13
2022-09-18T13:20:23.979Z,7.63
2022-09-18T13:22:33.382Z,6.32
2022-09-18T13:24:39.884Z,4.47
2022-09-18T13:26:45.230Z,5.32
2022-09-18T13:28:47.630Z,5.60
2022-09-18T13:31:06.426Z,6.53
2022-09-18T13:33:23.094Z,5.05
2022-09-18T13:35:28.998Z,4.57
2022-09-18T13:37:31.322Z,2.70
2022-09-18T13:39:50.652Z,3.03
2022-09-18T13:41:59.864Z,3.47
2022-09-18T13:44:03.990Z,5.00
2022-09-18T13:46:07.521Z,4.75
2022-09-18T13:48:22.265Z,4.97
2022-09-18T13:50:24.453Z,5.77
2022-09-18T13:52:46.521Z,6.53
2022-09-18T13:55:01.003Z,10.43
2022-09-18T13:57:30.490Z,8.32
2022-09-18T13:59:45.885Z,5.70
2022-09-18T14:02:22.878Z,5.30
2022-09-18T14:04:56.853Z,6.55
2022-09-18T14:06:59.014Z,7.95
2022-09-18T14:09:01.422Z,8.73
2022-09-18T14:11:16.216Z,4.80
2022-09-18T14:13:38.166Z,10.35
2022-09-18T14:15:52.874Z,10.52
2022-09-18T14:18:07.070Z,5.00
2022-09-18T14:20:21.962Z,7.15
2022-09-18T14:22:28.405Z,10.00
2022-09-18T14:24:56.454Z,9.63
2022-09-18T14:27:28.579Z,9.07
2022-09-18T14:29:34.217Z,12.75
2022-09-18T14:31:38.702Z,5.05
2022-09-18T14:33:42.548Z,9.88
2022-09-18T14:35:54.370Z,7.05
2022-09-18T14:37:56.511Z,12.60
2022-09-18T14:39:59.313Z,5.88
2022-09-18T14:42:04.925Z,9.63
2022-09-18T14:44:15.040Z,6.00
2022-09-18T14:46:21.482Z,7.93
2022-09-18T14:48:30.284Z,9.05
2022-09-18T14:50:36.789Z,4.72
2022-09-18T14:52:44.029Z,9.75
2022-09-18T14:54:47.692Z,12.02
2022-09-18T14:56:52.464Z,9.00
2022-09-18T14:58:57.189Z,10.05
2022-09-18T15:00:59.799Z,8.38
2022-09-18T15:03:05.692Z,9.98
2022-09-18T15:05:12.529Z,5.18
2022-09-18T15:07:18.346Z,6.57
2022-09-18T15:09:28.518Z,9.65
2022-09-18T15:11:41.949Z,8.70
2022-09-18T15:13:56.463Z,5.88
2022-09-18T15:16:00.923Z,4.78
2022-09-18T15:18:04.015Z,9.73
2022-09-18T15:20:16.171Z,9.77
2022-09-18T15:22:22.544Z,9.07
2022-09-18T15:24:28.029Z,7.13
2022-09-18T15:26:33.084Z,9.52
2022-09-18T15:28:37.737Z,8.73
2022-09-18T15:30:40.475Z,8.20
2022-09-18T15:32:46.139Z,10.60
2022-09-18T15:34:50.613Z,11.98
2022-09-18T15:36:57.756Z,10.82
2022-09-18T15:39:00.681Z,6.30
2022-09-18T15:41:23.027Z,8.90
2022-09-18T15:43:43.389Z,7.78
2022-09-18T15:46:02.456Z,7.10
2022-09-18T15:48:34.382Z,7.75
2022-09-18T15:50:40.538Z,9.07
2022-09-18T15:52:47.309Z,11.70
2022-09-18T15:55:04.779Z,7.97
2022-09-18T15:57:15.883Z,9.35
2022-09-18T15:59:23.223Z,7.18
2022-09-18T16:01:31.973Z,9.48
2022-09-18T16:03:35.776Z,10.70
2022-09-18T16:05:49.965Z,8.77
2022-09-18T16:07:57.534Z,10.13
2022-09-18T16:09:59.860Z,5.85
2022-09-18T16:12:02.601Z,11.70
2022-09-18T16:14:40.354Z,8.60
2022-09-18T16:16:42.661Z,10.45
2022-09-18T16:18:56.422Z,7.85
2022-09-18T16:21:04.395Z,6.37
2022-09-18T16:23:21.498Z,11.18
2022-09-18T16:25:26.308Z,8.57
2022-09-18T16:27:28.557Z,10.02
2022-09-18T16:29:35.023Z,9.82
2022-09-18T16:31:37.688Z,7.75
2022-09-18T16:33:49.785Z,9.98
2022-09-18T16:35:56.377Z,7.03
2022-09-18T16:37:58.542Z,9.63
2022-09-18T16:40:01.458Z,9.75
2022-09-18T16:42:14.178Z,9.05
2022-09-18T16:44:18.338Z,5.90
2022-09-18T16:46:28.076Z,10.82
2022-09-18T16:48:30.356Z,7.53
2022-09-18T16:50:33.044Z,9.50
2022-09-18T16:52:37.641Z,9.88
2022-09-18T16:54:41.867Z,6.28
2022-09-18T16:58:47.277Z,6.05
2022-09-18T17:00:49.814Z,12.50
2022-09-18T17:02:55.809Z,9.65
2022-09-18T17:05:00.781Z,10.43
2022-09-18T17:07:03.389Z,14.20
2022-09-18T17:09:07.709Z,9.68
2022-09-18T17:11:10.353Z,15.25
2022-09-18T17:13:12.973Z,11.70
2022-09-18T17:15:15.275Z,8.77
2022-09-18T17:17:17.662Z,10.52
2022-09-18T17:19:22.638Z,9.35
2022-09-18T17:21:24.761Z,16.35
2022-09-18T17:23:26.971Z,16.17
2022-09-18T17:25:29.653Z,12.82
2022-09-18T17:27:32.434Z,11.13
2022-09-18T17:29:34.716Z,12.10
2022-09-18T17:31:37.053Z,18.98
2022-09-18T17:33:40.488Z,15.40
2022-09-18T17:35:45.236Z,11.37
2022-09-18T17:37:47.400Z,12.70
2022-09-18T17:39:49.532Z,15.30
2022-09-18T17:41:51.742Z,11.63
2022-09-18T17:43:54.288Z,11.52
2022-09-18T17:45:57.372Z,11.07
2022-09-18T17:47:59.646Z,18.23
2022-09-18T17:50:01.794Z,15.63
2022-09-18T17:52:06.663Z,11.68
2022-09-18T17:56:48.578Z,8.25
2022-09-18T17:58:51.552Z,12.70
2022-09-18T18:00:54.097Z,12.90
2022-09-18T18:02:56.452Z,10.25
2022-09-18T18:04:59.523Z,12.60
2022-09-18T18:07:01.853Z,9.80
2022-09-18T18:09:10.114Z,8.02
2022-09-18T18:11:14.558Z,9.20
2022-09-18T18:13:17.917Z,6.50
2022-09-18T18:15:20.112Z,12.30
2022-09-18T18:17:22.317Z,11.90
2022-09-18T18:19:24.820Z,9.38
2022-09-18T18:21:27.919Z,7.15
2022-09-18T18:23:30.125Z,10.55
2022-09-18T18:25:37.499Z,11.85
2022-09-18T18:27:39.661Z,12.55
2022-09-18T18:29:42.391Z,13.90
2022-09-18T18:31:47.988Z,7.90
2022-09-18T18:33:50.994Z,14.50
2022-09-18T18:35:53.201Z,11.50
2022-09-18T18:37:55.808Z,11.63
2022-09-18T18:39:58.154Z,13.82
2022-09-18T18:42:03.084Z,14.10
2022-09-18T18:44:07.246Z,16.48
2022-09-18T18:46:13.973Z,16.42
2022-09-18T18:48:17.409Z,14.43
2022-09-18T18:50:21.003Z,21.07
2022-09-18T18:52:23.806Z,17.33
2022-09-18T18:54:27.180Z,24.65
2022-09-18T18:56:30.553Z,17.27
2022-09-18T18:58:37.166Z,17.85
2022-09-18T19:00:39.525Z,20.92
2022-09-18T19:02:41.852Z,15.65
2022-09-18T19:04:44.743Z,19.98
2022-09-18T19:06:50.293Z,14.98
2022-09-18T19:08:56.905Z,11.18
2022-09-18T19:11:01.037Z,12.07
2022-09-18T19:13:03.220Z,11.80
2022-09-18T19:15:09.199Z,9.70
2022-09-18T19:17:11.541Z,10.27
2022-09-18T19:19:16.029Z,9.55
2022-09-18T19:21:19.461Z,10.15
2022-09-18T19:23:21.691Z,12.00
2022-09-18T19:25:24.877Z,7.45
2022-09-18T19:27:27.042Z,8.80
2022-09-18T19:29:30.564Z,15.82
2022-09-18T19:31:37.584Z,11.43
2022-09-18T19:33:40.018Z,22.35
2022-09-18T19:35:42.797Z,11.38
2022-09-18T19:37:45.015Z,11.23
2022-09-18T19:39:49.045Z,13.70
2022-09-18T19:41:55.901Z,16.20
2022-09-18T19:43:58.713Z,15.05
2022-09-18T19:46:01.703Z,13.23
2022-09-18T19:48:11.413Z,15.48
2022-09-18T19:50:21.791Z,16.60
2022-09-18T19:52:25.844Z,20.05
2022-09-18T19:54:29.060Z,18.77
2022-09-18T19:56:42.520Z,19.30
2022-09-18T19:58:50.773Z,11.20
2022-09-18T20:00:53.032Z,14.15
2022-09-18T20:02:58.844Z,17.65
2022-09-18T20:05:07.071Z,8.50
2022-09-18T20:07:09.705Z,14.00
2022-09-18T20:09:11.898Z,10.52
2022-09-18T20:11:15.969Z,10.18
2022-09-18T20:13:18.173Z,18.73
2022-09-18T20:15:20.710Z,18.30
2022-09-18T20:17:23.361Z,16.17
2022-09-18T20:19:26.224Z,18.00
2022-09-18T20:21:30.976Z,17.67
2022-09-18T20:23:33.408Z,14.18
2022-09-18T20:25:35.818Z,20.40
2022-09-18T20:27:40.260Z,23.70
2022-09-18T20:29:42.583Z,20.98
2022-09-18T20:31:46.054Z,25.52
2022-09-18T20:33:48.417Z,17.40
2022-09-18T20:36:00.336Z,23.88
2022-09-18T20:38:05.306Z,24.20
2022-09-18T20:40:12.567Z,12.02
2022-09-18T20:42:16.858Z,14.65
2022-09-18T20:44:19.636Z,11.30
2022-09-18T20:46:22.419Z,6.53
2022-09-18T20:48:26.387Z,8.85
2022-09-18T20:50:28.625Z,10.65
2022-09-18T20:52:31.227Z,7.97
2022-09-18T20:54:37.085Z,7.00
2022-09-18T20:56:44.732Z,8.98
2022-09-18T20:58:48.062Z,12.90
2022-09-18T21:00:50.283Z,7.78
2022-09-18T21:02:55.354Z,9.00
2022-09-18T21:04:58.766Z,12.80
2022-09-18T21:07:01.693Z,13.43
2022-09-18T21:09:07.846Z,10.60
2022-09-18T21:11:14.243Z,11.68
2022-09-18T21:13:16.961Z,12.52
2022-09-18T21:15:19.319Z,10.38
2022-09-18T21:17:21.553Z,12.50
2022-09-18T21:19:26.249Z,8.77
2022-09-18T21:21:30.964Z,10.60
2022-09-18T21:23:52.106Z,7.15
2022-09-18T21:25:54.348Z,13.20
2022-09-18T21:27:59.446Z,13.88
2022-09-18T21:30:01.714Z,8.18
2022-09-18T21:32:06.901Z,12.18
2022-09-18T21:34:10.998Z,11.45
2022-09-18T21:36:13.471Z,14.38
2022-09-18T21:38:15.825Z,12.40
2022-09-18T21:40:18.040Z,17.73
2022-09-18T21:42:20.369Z,11.95
2022-09-18T21:44:27.959Z,15.98
2022-09-18T21:46:30.272Z,17.55
2022-09-18T21:48:33.374Z,13.25
2022-09-18T21:50:36.560Z,16.77
2022-09-18T21:52:39.282Z,10.55
2022-09-18T21:54:42.429Z,12.57
2022-09-18T21:56:46.437Z,12.10
2022-09-18T21:58:48.840Z,11.85
2022-09-18T22:00:54.036Z,15.48
2022-09-18T22:02:56.676Z,16.17
2022-09-18T22:05:01.220Z,14.77
2022-09-18T22:07:04.072Z,15.40
2022-09-18T22:09:08.174Z,17.23
2022-09-18T22:11:10.693Z,14.30
2022-09-18T22:13:12.905Z,13.35
2022-09-18T22:15:15.367Z,21.58
2022-09-18T22:17:20.194Z,10.45
2022-09-18T22:19:22.535Z,9.98
2022-09-18T22:21:27.635Z,7.50
2022-09-18T22:23:30.109Z,7.68
2022-09-18T22:25:33.876Z,11.77
2022-09-18T22:27:36.565Z,6.15
2022-09-18T22:29:40.067Z,6.88
2022-09-18T22:31:42.673Z,7.20
2022-09-18T22:33:48.440Z,7.72
2022-09-18T22:35:50.712Z,8.30
2022-09-18T22:37:53.062Z,10.60
2022-09-18T22:39:55.804Z,9.95
2022-09-18T22:41:58.467Z,6.50
2022-09-18T22:44:00.637Z,7.97
2022-09-18T22:46:04.315Z,4.40
2022-09-18T22:48:06.490Z,8.68
2022-09-18T22:50:11.327Z,6.30
2022-09-18T22:52:13.622Z,6.40
2022-09-18T22:54:16.946Z,6.80
2022-09-18T22:56:21.044Z,5.43
2022-09-18T22:58:23.302Z,9.90
2022-09-18T23:00:25.453Z,9.85
2022-09-18T23:02:27.879Z,9.55
2022-09-18T23:04:31.707Z,9.25
2022-09-18T23:06:36.617Z,9.98
2022-09-18T23:08:39.030Z,9.23
2022-09-18T23:10:42.339Z,9.73
2022-09-18T23:12:44.507Z,9.32
2022-09-18T23:14:46.674Z,13.57
2022-09-18T23:16:49.825Z,11.23
2022-09-18T23:18:54.311Z,11.82
2022-09-18T23:21:03.562Z,9.80
2022-09-18T23:23:08.355Z,13.98
2022-09-18T23:25:11.094Z,13.32
2022-09-18T23:27:13.510Z,10.93
2022-09-18T23:29:17.609Z,15.77
2022-09-18T23:31:25.171Z,16.00
2022-09-18T23:33:28.240Z,13.02
2022-09-18T23:35:30.482Z,11.70
2022-09-18T23:37:32.651Z,12.20
2022-09-18T23:39:37.646Z,14.23
2022-09-18T23:41:40.362Z,13.63
2022-09-18T23:43:46.799Z,13.77
2022-09-18T23:45:48.977Z,8.35
2022-09-18T23:47:51.155Z,17.90
2022-09-18T23:49:53.517Z,13.38
2022-09-18T23:51:56.772Z,17.15
2022-09-18T23:54:01.112Z,17.33
2022-09-18T23:56:07.960Z,13.07
2022-09-18T23:58:11.052Z,10.82
